Back to top

Laramie, WY weather

Laramie Regional Airport, Laramie, WY: 6/04/2020 04:53
Visibility10 statute milessun with a few clouds
View 7-Day Forecast
Area Summary
Sky/CloudsFew at 12000ft
Weather [last 24 hours]None [rain began 14:47; rain ended 15:05; rain began 17:45; rain ended 18:23 ]
Pressure30.11 in.Hg (1020 hPa)
Dew Point33.1 °F (0.6 °C)
Relative Humidity54.1 %
Last 24-Hour Precip.Trace
Reading TimePrecipitation
6-hr ending 6/3@23:53Trace
6-hr ending 6/3@17:53Trace
Temperature48.9 °F (9.4 °C)red thermometer
Wind Chill46.5 °F (8.05 °C)
Reading TimeMinimum to Maximum Temperature
6-hr ending 6/3@23:5350 °F to 73 °F (10 °C to 22.8 °C)
6-hr ending 6/3@17:5364 °F to 80.1 °F (17.8 °C to 26.7 °C)
6-hr ending 6/3@11:5345 °F to 75.9 °F (7.2 °C to 24.4 °C)
6-hr ending 6/3@05:5345 °F to 60.1 °F (7.2 °C to 15.6 °C)
24-hr ending 6/4@00:5345 °F to 80.1 °F (7.2 °C to 26.7 °C)
Wind5.75 MPH (5 KT) green arrow pointing 225 degrees
Wind FromSouthwest (220 Degrees)
Rolling 24-hr Peak Wind73.7 MPH (64 KT) on 6/3@17:42
Rolling 24-hr Peak Wind FromWest/Southwest (240 Degrees)
Twilight Begins04:55Sunshine Yesterday
Sunrise05:29N/A
Sunset20:34
Twilight Ends21:08
METARKLAR 041053Z AUTO 22005KT 10SM FEW120 09/01 A3011 RMK AO2 SLP091 T00940006
Tags: